Time;durP1;ratioP1;P1;durP2;ratioP2;P2;SDS_P1;SDS_P2;PMS_P1;PMS_P2;Temp;Humidity;BMP_temperature;BMP_pressure;BME280_temperature;BME280_humidity;BME280_pressure;Samples;Min_cycle;Max_cycle;Signal;HPM_P1;HPM_P2
2023/12/30 15:44:40;;;;;;;6.28;3.17;;;;;;;12.37;81.23;100179.88;5069097;28;20387;-44
2023/12/30 15:47:09;;;;;;;5.60;3.65;;;;;;;12.02;83.39;100172.66;5056183;28;20043;-44
2023/12/30 15:49:35;;;;;;;5.75;3.90;;;;;;;11.72;83.55;100171.75;5049230;28;20049;-45
2023/12/30 15:52:00;;;;;;;6.95;4.28;;;;;;;11.57;84.19;100171.75;5049109;28;20465;-47
2023/12/30 15:54:26;;;;;;;10.57;6.65;;;;;;;11.34;85.70;100172.59;5049223;28;20029;-45
2023/12/30 15:56:52;;;;;;;10.23;5.65;;;;;;;11.29;86.61;100171.50;5047737;28;20068;-43
2023/12/30 15:59:18;;;;;;;8.65;4.45;;;;;;;11.03;89.13;100172.72;5048852;28;20400;-42
2023/12/30 16:01:43;;;;;;;7.25;3.65;;;;;;;10.73;89.04;100176.22;5048868;28;20041;-42
2023/12/30 16:04:10;;;;;;;6.22;2.97;;;;;;;10.55;90.48;100172.00;5047836;28;20029;-43
2023/12/30 16:06:36;;;;;;;4.40;2.80;;;;;;;10.54;90.84;100165.00;5047691;28;20041;-42
2023/12/30 16:09:03;;;;;;;5.47;2.80;;;;;;;10.41;92.38;100167.41;5048543;28;20481;-41
2023/12/30 16:11:29;;;;;;;6.93;4.20;;;;;;;10.53;92.04;100171.34;5048426;28;20056;-42
2023/12/30 16:13:55;;;;;;;9.88;4.10;;;;;;;10.56;91.67;100162.16;5048461;28;21101;-42
2023/12/30 16:16:20;;;;;;;9.02;3.85;;;;;;;10.33;93.03;100162.97;5048223;28;20041;-41
2023/12/30 16:18:46;;;;;;;6.57;3.40;;;;;;;10.55;93.00;100153.34;5048535;28;20033;-40
2023/12/30 16:21:12;;;;;;;4.72;3.10;;;;;;;10.21;93.76;100152.84;5048710;28;20376;-39
2023/12/30 16:23:39;;;;;;;6.00;2.60;;;;;;;10.18;94.53;100150.53;5048309;28;20037;-43
2023/12/30 16:26:07;;;;;;;6.55;2.90;;;;;;;10.08;95.35;100145.41;5047598;28;20044;-42
2023/12/30 16:28:33;;;;;;;4.93;2.90;;;;;;;10.18;95.58;100150.53;5048208;28;20037;-42
2023/12/30 16:30:59;;;;;;;5.40;2.45;;;;;;;9.89;96.62;100141.31;5048141;28;20029;-44
2023/12/30 16:33:24;;;;;;;9.57;2.70;;;;;;;9.81;98.28;100143.16;5048313;28;20036;-42
2023/12/30 16:35:49;;;;;;;6.20;1.90;;;;;;;9.64;98.64;100135.22;5047657;28;20091;-40
2023/12/30 16:38:15;;;;;;;4.95;2.38;;;;;;;9.51;99.67;100133.06;5046928;28;20500;-42
2023/12/30 16:40:41;;;;;;;13.68;6.22;;;;;;;9.41;100.00;100135.09;5047817;28;20037;-42
2023/12/30 16:43:06;;;;;;;7.82;4.35;;;;;;;9.15;100.00;100126.50;5047783;28;20021;-40
2023/12/30 16:45:32;;;;;;;3.63;2.08;;;;;;;9.09;100.00;100129.81;5047789;28;20077;-40
2023/12/30 16:47:59;;;;;;;3.08;2.17;;;;;;;9.04;100.00;100126.81;5047806;28;20408;-43
2023/12/30 16:50:24;;;;;;;6.37;2.20;;;;;;;9.00;100.00;100120.16;5047833;28;20048;-42
2023/12/30 16:52:49;;;;;;;4.85;2.35;;;;;;;8.87;100.00;100118.84;5047819;28;20033;-43
2023/12/30 16:55:15;;;;;;;7.95;2.85;;;;;;;8.90;100.00;100118.50;5038787;28;20095;-41
2023/12/30 16:57:40;;;;;;;3.85;2.35;;;;;;;8.79;100.00;100123.31;5034074;28;20029;-40
2023/12/30 17:00:09;;;;;;;5.70;3.38;;;;;;;8.84;100.00;100118.34;5034809;28;20404;-41
2023/12/30 17:02:38;;;;;;;3.85;2.38;;;;;;;8.69;100.00;100129.63;5033161;28;20503;-42
2023/12/30 17:05:05;;;;;;;4.40;2.70;;;;;;;8.77;100.00;100126.13;5034319;28;20041;-43
2023/12/30 17:07:30;;;;;;;11.50;4.72;;;;;;;9.03;100.00;100123.34;5034128;28;20033;-41
2023/12/30 17:09:58;;;;;;;14.70;5.22;;;;;;;9.00;100.00;100121.03;5034265;28;20401;-41
2023/12/30 17:12:24;;;;;;;8.95;3.88;;;;;;;9.04;100.00;100117.00;5034441;28;20045;-44
2023/12/30 17:14:50;;;;;;;11.25;4.13;;;;;;;9.06;100.00;100115.00;5034321;28;20037;-42
2023/12/30 17:17:15;;;;;;;23.88;9.65;;;;;;;9.18;100.00;100115.50;5033915;28;20128;-42
2023/12/30 17:19:40;;;;;;;24.88;10.32;;;;;;;9.31;100.00;100109.69;5024709;28;20046;-41
2023/12/30 17:22:06;;;;;;;14.32;5.50;;;;;;;9.43;99.98;100109.16;5032981;28;20130;-41
2023/12/30 17:24:32;;;;;;;9.52;3.72;;;;;;;9.47;99.46;100107.00;5033693;28;20061;-44
2023/12/30 17:26:58;;;;;;;9.18;3.88;;;;;;;9.45;98.56;100107.19;5032984;28;20435;-43
2023/12/30 17:29:24;;;;;;;5.93;3.38;;;;;;;9.30;100.00;100100.06;5033917;28;20041;-44
2023/12/30 17:31:51;;;;;;;7.50;3.53;;;;;;;9.55;99.93;100108.81;5033908;28;20034;-46
2023/12/30 17:34:16;;;;;;;12.15;4.93;;;;;;;9.38;100.00;100103.53;5033664;28;20056;-41
2023/12/30 17:36:42;;;;;;;9.93;4.80;;;;;;;9.21;100.00;100100.06;5032974;28;20107;-43
2023/12/30 17:39:07;;;;;;;12.65;5.53;;;;;;;9.01;100.00;100096.09;5033843;28;20041;-43
2023/12/30 17:41:33;;;;;;;11.27;4.85;;;;;;;8.92;100.00;100095.25;5033748;28;20053;-40
2023/12/30 17:43:58;;;;;;;12.23;4.45;;;;;;;9.07;100.00;100081.34;5033478;28;20040;-42
2023/12/30 17:46:24;;;;;;;10.02;4.25;;;;;;;9.08;100.00;100077.66;5032809;28;20048;-43
2023/12/30 17:48:49;;;;;;;8.13;3.60;;;;;;;8.94;100.00;100081.84;5033170;28;20041;-42
2023/12/30 17:51:15;;;;;;;7.55;3.70;;;;;;;8.80;100.00;100079.81;5033528;28;20073;-41
2023/12/30 17:53:40;;;;;;;8.90;3.90;;;;;;;8.80;100.00;100077.16;5033245;28;20030;-37
2023/12/30 17:56:05;;;;;;;6.78;3.72;;;;;;;8.76;100.00;100074.03;5031450;28;20404;-37
2023/12/30 17:58:31;;;;;;;8.57;3.45;;;;;;;8.48;100.00;100072.69;5033200;28;20099;-37
2023/12/30 18:00:56;;;;;;;5.05;2.95;;;;;;;8.48;100.00;100064.72;5033251;28;20048;-37
2023/12/30 18:03:22;;;;;;;10.27;3.17;;;;;;;8.59;100.00;100067.03;5032917;28;20029;-38
2023/12/30 18:05:47;;;;;;;8.40;3.70;;;;;;;8.74;100.00;100070.72;5031731;28;20136;-38
2023/12/30 18:08:12;;;;;;;6.45;3.38;;;;;;;8.74;100.00;100077.81;5032885;28;20037;-35
2023/12/30 18:10:38;;;;;;;9.65;3.92;;;;;;;8.62;100.00;100072.03;5032873;28;20043;-36
2023/12/30 18:13:03;;;;;;;7.22;3.90;;;;;;;8.55;100.00;100071.84;5032991;28;20420;-36
2023/12/30 18:15:29;;;;;;;5.70;3.78;;;;;;;8.56;100.00;100075.34;5032889;28;20497;-36
2023/12/30 18:17:54;;;;;;;8.65;3.55;;;;;;;8.65;100.00;100069.03;5032120;28;20049;-36
2023/12/30 18:20:21;;;;;;;10.40;4.32;;;;;;;8.53;100.00;100067.69;5032831;28;20033;-36
2023/12/30 18:22:47;;;;;;;12.43;4.80;;;;;;;8.53;100.00;100067.69;5032668;28;20037;-38
2023/12/30 18:25:12;;;;;;;14.35;5.72;;;;;;;8.34;100.00;100066.97;5032455;28;20136;-35
2023/12/30 18:27:38;;;;;;;18.00;6.38;;;;;;;8.49;100.00;100074.34;5031809;28;20455;-38
2023/12/30 18:30:03;;;;;;;13.82;6.43;;;;;;;8.57;100.00;100069.03;5032904;28;20061;-39
2023/12/30 18:32:29;;;;;;;12.40;6.15;;;;;;;8.39;100.00;100067.34;5032655;28;20064;-36
2023/12/30 18:34:55;;;;;;;16.98;6.72;;;;;;;8.46;100.00;100064.03;5032365;28;20124;-37
2023/12/30 18:37:20;;;;;;;11.35;4.93;;;;;;;8.48;100.00;100059.41;5031713;28;20091;-37
2023/12/30 18:39:46;;;;;;;13.60;6.70;;;;;;;8.44;100.00;100064.19;5032207;28;20025;-38
2023/12/30 18:42:11;;;;;;;8.55;4.53;;;;;;;8.48;100.00;100064.72;5032383;28;20048;-37
2023/12/30 18:44:37;;;;;;;12.55;5.95;;;;;;;8.23;100.00;100053.19;5030566;28;20034;-37
2023/12/30 18:47:03;;;;;;;10.27;5.18;;;;;;;8.23;100.00;100050.53;5043032;28;20045;-37
2023/12/30 18:49:29;;;;;;;9.80;4.78;;;;;;;8.13;100.00;100048.00;5030701;28;20116;-38
2023/12/30 18:51:55;;;;;;;8.68;4.57;;;;;;;8.00;100.00;100045.81;5030774;28;20045;-38
2023/12/30 18:54:21;;;;;;;10.32;5.25;;;;;;;8.02;100.00;100048.31;5031045;28;20032;-37
2023/12/30 18:56:46;;;;;;;11.13;6.38;;;;;;;7.96;100.00;100052.47;5029806;28;20037;-37
2023/12/30 18:59:12;;;;;;;11.43;5.32;;;;;;;9.33;100.00;100055.38;5028285;28;20033;-38
2023/12/30 19:01:42;;;;;;;13.00;6.82;;;;;;;8.39;100.00;100048.75;5030718;28;20060;-37
2023/12/30 19:04:09;;;;;;;18.60;8.48;;;;;;;7.89;100.00;100044.31;5029551;28;20037;-36
2023/12/30 19:06:35;;;;;;;14.10;6.80;;;;;;;7.84;100.00;100030.69;5029984;28;20037;-34
2023/12/30 19:09:01;;;;;;;15.73;7.70;;;;;;;7.77;100.00;100036.81;5030580;28;20030;-37
2023/12/30 19:11:27;;;;;;;11.85;6.57;;;;;;;7.66;100.00;100032.63;5030640;28;20056;-35
2023/12/30 19:13:52;;;;;;;13.55;6.68;;;;;;;7.64;100.00;100026.66;5030605;28;20017;-36
2023/12/30 19:16:17;;;;;;;13.38;6.43;;;;;;;7.56;100.00;100029.25;5029890;28;20068;-36
2023/12/30 19:18:43;;;;;;;11.13;5.80;;;;;;;7.52;100.00;100019.97;5031094;28;20041;-36
2023/12/30 19:21:08;;;;;;;15.10;7.88;;;;;;;7.49;100.00;100022.91;5031785;28;20520;-35
2023/12/30 19:23:35;;;;;;;17.05;8.93;;;;;;;7.28;100.00;100007.41;5031754;28;20380;-33
2023/12/30 19:26:02;;;;;;;19.85;9.20;;;;;;;7.17;100.00;100011.19;5031079;28;20493;-34
2023/12/30 19:28:27;;;;;;;20.55;10.15;;;;;;;7.11;100.00;100016.25;5031927;28;20033;-37
2023/12/30 19:30:53;;;;;;;12.48;9.07;;;;;;;7.10;100.00;100010.13;5031888;28;20033;-36
2023/12/30 19:33:19;;;;;;;17.88;9.73;;;;;;;7.07;100.00;100008.63;5031870;28;20422;-36
2023/12/30 19:35:44;;;;;;;18.70;9.30;;;;;;;7.00;100.00;100009.41;5030724;28;20044;-36
2023/12/30 19:38:09;;;;;;;20.67;11.73;;;;;;;6.86;100.00;100005.53;5031704;28;20561;-37
2023/12/30 19:40:35;;;;;;;15.27;8.40;;;;;;;7.14;100.00;100000.06;5031717;28;20060;-36
2023/12/30 19:43:00;;;;;;;19.58;9.48;;;;;;;7.11;100.00;99989.75;5031461;28;20040;-39
2023/12/30 19:45:26;;;;;;;20.02;9.88;;;;;;;6.96;100.00;99987.69;5031551;28;20042;-37
2023/12/30 19:47:51;;;;;;;18.00;9.30;;;;;;;6.90;100.00;99979.56;5046325;28;20128;-37
2023/12/30 19:50:17;;;;;;;12.60;5.40;;;;;;;7.06;100.00;99982.31;5031416;28;20034;-38
2023/12/30 19:52:42;;;;;;;10.48;5.28;;;;;;;7.04;100.00;99978.97;5031334;28;20416;-39
2023/12/30 19:55:08;;;;;;;7.68;3.80;;;;;;;7.20;100.00;99979.06;5031619;28;20420;-36
2023/12/30 19:57:33;;;;;;;5.95;3.00;;;;;;;7.47;100.00;99979.84;5030913;28;20037;-36
2023/12/30 19:59:59;;;;;;;7.40;3.78;;;;;;;7.48;100.00;99977.03;5031732;28;20044;-39
2023/12/30 20:02:24;;;;;;;5.50;3.83;;;;;;;7.32;100.00;99972.50;5031435;28;20040;-36
2023/12/30 20:04:49;;;;;;;6.60;2.88;;;;;;;7.62;100.00;99976.41;5031314;28;20400;-36
2023/12/30 20:07:15;;;;;;;13.65;5.00;;;;;;;7.73;100.00;99963.88;5030682;28;20063;-37
2023/12/30 20:09:41;;;;;;;10.57;4.10;;;;;;;7.68;100.00;99956.38;5030223;28;20468;-35
2023/12/30 20:12:09;;;;;;;5.97;3.72;;;;;;;7.72;100.00;99963.03;5031627;28;20409;-37
2023/12/30 20:14:34;;;;;;;8.20;3.75;;;;;;;7.69;100.00;99952.75;5031401;28;20117;-35
2023/12/30 20:17:00;;;;;;;11.48;7.13;;;;;;;7.47;100.00;99959.47;5030611;28;20065;-35
2023/12/30 20:19:29;;;;;;;10.20;5.82;;;;;;;7.11;100.00;99953.53;5031291;28;20037;-34
2023/12/30 20:21:55;;;;;;;10.95;5.78;;;;;;;6.88;100.00;99953.22;5031024;28;20409;-37
2023/12/30 20:24:20;;;;;;;8.55;4.78;;;;;;;6.70;100.00;99950.63;5031283;28;20029;-37
2023/12/30 20:26:46;;;;;;;9.35;4.85;;;;;;;6.54;100.00;99955.81;5030658;28;20049;-36
2023/12/30 20:29:11;;;;;;;11.02;6.38;;;;;;;6.39;100.00;99949.41;5031367;28;20584;-36
2023/12/30 20:31:37;;;;;;;10.25;6.05;;;;;;;6.29;100.00;99943.38;5035048;28;20397;-35
2023/12/30 20:34:03;;;;;;;13.95;6.72;;;;;;;6.14;100.00;99936.00;5026932;28;20041;-35
2023/12/30 20:36:28;;;;;;;21.95;11.20;;;;;;;6.19;100.00;99943.47;5034198;28;20547;-34
2023/12/30 20:38:54;;;;;;;17.40;8.48;;;;;;;6.20;100.00;99937.22;5034739;28;20049;-35
2023/12/30 20:41:20;;;;;;;15.13;7.03;;;;;;;6.14;100.00;99943.94;5034816;28;20045;-37
2023/12/30 20:43:45;;;;;;;15.15;7.40;;;;;;;6.05;100.00;99942.19;5034505;28;20042;-39
2023/12/30 20:46:11;;;;;;;16.88;8.23;;;;;;;5.86;100.00;99940.47;5033917;28;20042;-34
2023/12/30 20:48:36;;;;;;;16.40;7.32;;;;;;;5.86;100.00;99935.19;5033171;28;20033;-35
2023/12/30 20:51:03;;;;;;;14.82;7.30;;;;;;;5.85;100.00;99933.53;5034504;28;20048;-35
2023/12/30 20:53:29;;;;;;;14.35;7.20;;;;;;;5.82;100.00;99933.84;5034586;28;20037;-38
2023/12/30 20:55:55;;;;;;;12.35;7.50;;;;;;;5.77;100.00;99935.28;5033534;28;20037;-38
2023/12/30 20:58:22;;;;;;;19.05;7.97;;;;;;;5.68;100.00;99929.91;5034044;28;20072;-39
2023/12/30 21:00:47;;;;;;;20.42;10.93;;;;;;;5.52;100.00;99926.25;5034003;28;20037;-38
2023/12/30 21:03:13;;;;;;;18.95;9.38;;;;;;;5.62;100.00;99919.94;5034372;28;20369;-40
2023/12/30 21:05:39;;;;;;;15.60;8.88;;;;;;;5.57;100.00;99921.38;5033344;28;20061;-35
2023/12/30 21:08:05;;;;;;;16.88;9.35;;;;;;;5.48;100.00;99917.81;5026319;28;20034;-38
2023/12/30 21:10:30;;;;;;;17.55;8.73;;;;;;;5.60;100.00;99913.13;5034319;28;20040;-38
2023/12/30 21:12:56;;;;;;;14.07;8.02;;;;;;;5.37;100.00;99907.44;5034123;28;20508;-37
2023/12/30 21:15:21;;;;;;;17.48;9.15;;;;;;;5.36;100.00;99905.78;5033977;28;20472;-38
2023/12/30 21:17:46;;;;;;;14.45;8.50;;;;;;;5.37;100.00;99903.00;5033381;28;20412;-38
2023/12/30 21:20:12;;;;;;;13.48;7.80;;;;;;;5.34;100.00;99902.44;5033801;28;20091;-39
2023/12/30 21:22:38;;;;;;;13.43;7.32;;;;;;;5.23;100.00;99903.50;5034060;28;20107;-40
2023/12/30 21:25:04;;;;;;;13.48;7.15;;;;;;;5.32;100.00;99899.13;5034037;28;20045;-40
2023/12/30 21:27:29;;;;;;;16.15;7.57;;;;;;;5.17;100.00;99902.25;5031947;28;20041;-38
2023/12/30 21:29:55;;;;;;;13.38;7.47;;;;;;;5.11;100.00;99897.56;5033752;28;20435;-40
2023/12/30 21:32:21;;;;;;;15.70;8.10;;;;;;;5.12;100.00;99899.22;5033660;28;20505;-38
2023/12/30 21:34:47;;;;;;;17.95;8.68;;;;;;;5.05;100.00;99898.16;5031153;28;20038;-39
2023/12/30 21:37:13;;;;;;;15.05;8.05;;;;;;;5.11;100.00;99887.00;5032990;28;20037;-38
2023/12/30 21:39:38;;;;;;;13.63;7.65;;;;;;;4.98;100.00;99880.41;5033381;28;20109;-38
2023/12/30 21:42:04;;;;;;;12.88;7.47;;;;;;;4.85;100.00;99883.38;5033309;28;20112;-38
2023/12/30 21:44:30;;;;;;;13.52;7.60;;;;;;;4.90;100.00;99884.59;5033491;28;20068;-38
2023/12/30 21:46:56;;;;;;;20.08;9.52;;;;;;;4.98;100.00;99880.41;5032702;28;20049;-39
2023/12/30 21:49:21;;;;;;;14.23;7.20;;;;;;;5.02;100.00;99882.63;5033322;28;20087;-39
2023/12/30 21:51:46;;;;;;;13.23;7.50;;;;;;;4.84;100.00;99879.91;5033315;28;20041;-40
2023/12/30 21:54:13;;;;;;;17.88;8.10;;;;;;;4.75;100.00;99879.94;5033480;28;20061;-38
2023/12/30 21:56:39;;;;;;;15.80;8.43;;;;;;;4.75;100.00;99880.75;5032607;28;20116;-38
2023/12/30 21:59:05;;;;;;;26.52;12.63;;;;;;;4.63;100.00;99880.13;5040740;28;20036;-37
2023/12/30 22:01:31;;;;;;;27.02;12.05;;;;;;;4.57;100.00;99877.25;5033266;28;20037;-38
2023/12/30 22:03:57;;;;;;;25.98;13.48;;;;;;;4.65;100.00;99873.88;5047920;28;20041;-37
2023/12/30 22:06:22;;;;;;;34.33;16.02;;;;;;;4.36;100.00;99865.06;5032550;28;20041;-39
2023/12/30 22:08:48;;;;;;;29.60;14.95;;;;;;;4.48;100.00;99868.34;5032928;28;20088;-38
2023/12/30 22:11:16;;;;;;;27.60;12.15;;;;;;;4.43;100.00;99870.59;5048561;28;20030;-38
2023/12/30 22:13:41;;;;;;;25.58;12.73;;;;;;;4.43;100.00;99869.75;5033035;28;20116;-38
2023/12/30 22:16:06;;;;;;;28.20;12.38;;;;;;;4.44;100.00;99869.63;5032175;28;20476;-38
2023/12/30 22:18:32;;;;;;;21.95;11.75;;;;;;;4.34;100.00;99866.19;5032893;28;20051;-38
2023/12/30 22:20:57;;;;;;;22.95;10.68;;;;;;;4.31;100.00;99871.75;5032652;28;20069;-38
2023/12/30 22:23:23;;;;;;;20.17;10.32;;;;;;;4.14;100.00;99862.75;5032895;28;20374;-39
2023/12/30 22:25:48;;;;;;;17.38;9.75;;;;;;;4.26;100.00;99863.44;5031825;28;20045;-38
2023/12/30 22:28:13;;;;;;;18.70;9.15;;;;;;;4.21;100.00;99865.66;5032835;28;20033;-38
2023/12/30 22:30:39;;;;;;;20.40;10.43;;;;;;;4.33;100.00;99867.16;5032794;28;20497;-38
2023/12/30 22:33:04;;;;;;;20.92;11.10;;;;;;;4.22;100.00;99862.03;5031314;28;20032;-39
2023/12/30 22:35:30;;;;;;;19.02;10.73;;;;;;;4.20;100.00;99864.81;5032240;28;20554;-38
2023/12/30 22:37:55;;;;;;;22.25;10.70;;;;;;;4.20;100.00;99859.53;5030680;28;20045;-37
2023/12/30 22:40:20;;;;;;;21.52;10.98;;;;;;;4.22;100.00;99864.66;5032746;28;20064;-38
2023/12/30 22:42:47;;;;;;;21.70;11.57;;;;;;;4.26;100.00;99861.63;5032345;28;20049;-37
2023/12/30 22:45:13;;;;;;;21.20;10.35;;;;;;;4.12;100.00;99861.25;5031169;28;20045;-38
2023/12/30 22:47:39;;;;;;;27.33;12.00;;;;;;;4.11;100.00;99856.91;5031877;28;20048;-38
2023/12/30 22:50:05;;;;;;;26.13;12.45;;;;;;;3.90;100.00;99857.09;5031745;28;20117;-38
2023/12/30 22:52:32;;;;;;;24.25;12.15;;;;;;;3.87;100.00;99849.47;5030934;28;20065;-38
2023/12/30 22:54:57;;;;;;;22.40;11.48;;;;;;;3.84;100.00;99840.03;5032684;28;20065;-37
2023/12/30 22:57:24;;;;;;;21.90;11.73;;;;;;;3.97;100.00;99837.94;5032721;28;20072;-38
2023/12/30 22:59:50;;;;;;;24.50;12.57;;;;;;;3.94;100.00;99840.03;5033638;28;20075;-38
